sensor_id;sensor_type;location;lat;lon;timestamp;pressure;altitude;pressure_sealevel;temperature;humidity
60611;BME280;46439;51.164;13.572;2023-02-08T00:01:17;102611.13;;;-4.08;76.77
60611;BME280;46439;51.164;13.572;2023-02-08T00:03:46;102613.35;;;-4.01;76.98
60611;BME280;46439;51.164;13.572;2023-02-08T00:06:17;102617.04;;;-4.00;76.76
60611;BME280;46439;51.164;13.572;2023-02-08T00:08:45;102614.16;;;-3.96;76.83
60611;BME280;46439;51.164;13.572;2023-02-08T00:11:14;102616.21;;;-3.93;76.97
60611;BME280;46439;51.164;13.572;2023-02-08T00:13:42;102617.64;;;-3.93;77.04
60611;BME280;46439;51.164;13.572;2023-02-08T00:16:13;102616.95;;;-3.94;77.03
60611;BME280;46439;51.164;13.572;2023-02-08T00:18:58;102613.76;;;-3.92;77.08
60611;BME280;46439;51.164;13.572;2023-02-08T00:21:46;102611.58;;;-3.87;76.85
60611;BME280;46439;51.164;13.572;2023-02-08T00:24:15;102608.16;;;-3.82;77.35
60611;BME280;46439;51.164;13.572;2023-02-08T00:26:44;102601.65;;;-3.81;76.98
60611;BME280;46439;51.164;13.572;2023-02-08T00:29:13;102602.52;;;-3.80;77.30
60611;BME280;46439;51.164;13.572;2023-02-08T00:31:41;102602.70;;;-3.82;76.94
60611;BME280;46439;51.164;13.572;2023-02-08T00:34:10;102606.01;;;-3.79;77.25
60611;BME280;46439;51.164;13.572;2023-02-08T00:36:38;102606.66;;;-3.75;77.06
60611;BME280;46439;51.164;13.572;2023-02-08T00:39:07;102608.37;;;-3.72;77.04
60611;BME280;46439;51.164;13.572;2023-02-08T00:41:35;102612.94;;;-3.70;77.29
60611;BME280;46439;51.164;13.572;2023-02-08T00:44:04;102610.79;;;-3.68;77.35
60611;BME280;46439;51.164;13.572;2023-02-08T00:49:01;102605.89;;;-3.71;77.24
60611;BME280;46439;51.164;13.572;2023-02-08T00:51:29;102605.13;;;-3.78;77.03
60611;BME280;46439;51.164;13.572;2023-02-08T00:53:58;102605.23;;;-3.86;76.78
60611;BME280;46439;51.164;13.572;2023-02-08T00:56:27;102603.21;;;-3.93;76.58
60611;BME280;46439;51.164;13.572;2023-02-08T00:58:55;102605.95;;;-4.01;76.53
60611;BME280;46439;51.164;13.572;2023-02-08T01:01:24;102603.67;;;-4.02;76.53
60611;BME280;46439;51.164;13.572;2023-02-08T01:03:52;102595.92;;;-4.00;76.74
60611;BME280;46439;51.164;13.572;2023-02-08T01:06:21;102594.60;;;-4.08;76.69
60611;BME280;46439;51.164;13.572;2023-02-08T01:08:49;102590.84;;;-4.16;76.48
60611;BME280;46439;51.164;13.572;2023-02-08T01:11:20;102583.85;;;-4.19;76.31
60611;BME280;46439;51.164;13.572;2023-02-08T01:13:49;102578.79;;;-4.22;76.38
60611;BME280;46439;51.164;13.572;2023-02-08T01:16:21;102579.23;;;-4.30;76.32
60611;BME280;46439;51.164;13.572;2023-02-08T01:18:51;102579.70;;;-4.39;76.06
60611;BME280;46439;51.164;13.572;2023-02-08T01:21:22;102578.84;;;-4.41;76.26
60611;BME280;46439;51.164;13.572;2023-02-08T01:23:51;102577.14;;;-4.46;76.02
60611;BME280;46439;51.164;13.572;2023-02-08T01:26:21;102577.18;;;-4.50;76.05
60611;BME280;46439;51.164;13.572;2023-02-08T01:28:50;102579.17;;;-4.54;75.85
60611;BME280;46439;51.164;13.572;2023-02-08T01:31:21;102583.20;;;-4.53;75.88
60611;BME280;46439;51.164;13.572;2023-02-08T01:33:50;102583.84;;;-4.48;76.05
60611;BME280;46439;51.164;13.572;2023-02-08T01:36:18;102580.79;;;-4.42;76.56
60611;BME280;46439;51.164;13.572;2023-02-08T01:38:47;102579.84;;;-4.36;76.77
60611;BME280;46439;51.164;13.572;2023-02-08T01:41:17;102579.42;;;-4.31;76.53
60611;BME280;46439;51.164;13.572;2023-02-08T01:44:08;102580.65;;;-4.30;76.82
60611;BME280;46439;51.164;13.572;2023-02-08T01:46:56;102581.70;;;-4.30;76.79
60611;BME280;46439;51.164;13.572;2023-02-08T01:49:27;102579.98;;;-4.34;76.69
60611;BME280;46439;51.164;13.572;2023-02-08T01:51:58;102580.25;;;-4.40;76.54
60611;BME280;46439;51.164;13.572;2023-02-08T01:54:29;102574.86;;;-4.46;76.54
60611;BME280;46439;51.164;13.572;2023-02-08T01:56:59;102574.36;;;-4.49;76.52
60611;BME280;46439;51.164;13.572;2023-02-08T01:59:35;102572.65;;;-4.54;76.11
60611;BME280;46439;51.164;13.572;2023-02-08T02:02:05;102575.65;;;-4.54;76.04
60611;BME280;46439;51.164;13.572;2023-02-08T02:04:35;102573.20;;;-4.54;76.33
60611;BME280;46439;51.164;13.572;2023-02-08T02:07:04;102572.61;;;-4.50;76.35
60611;BME280;46439;51.164;13.572;2023-02-08T02:09:38;102568.24;;;-4.51;76.57
60611;BME280;46439;51.164;13.572;2023-02-08T02:12:09;102563.19;;;-4.56;76.24
60611;BME280;46439;51.164;13.572;2023-02-08T02:14:39;102561.41;;;-4.54;76.44
60611;BME280;46439;51.164;13.572;2023-02-08T02:17:09;102557.48;;;-4.48;76.50
60611;BME280;46439;51.164;13.572;2023-02-08T02:19:48;102554.98;;;-4.45;76.42
60611;BME280;46439;51.164;13.572;2023-02-08T02:22:38;102560.08;;;-4.44;77.03
60611;BME280;46439;51.164;13.572;2023-02-08T02:28:41;102559.09;;;-4.36;77.03
60611;BME280;46439;51.164;13.572;2023-02-08T02:31:53;102559.18;;;-4.29;76.86
60611;BME280;46439;51.164;13.572;2023-02-08T02:34:28;102559.98;;;-4.24;76.89
60611;BME280;46439;51.164;13.572;2023-02-08T02:37:06;102553.81;;;-4.22;77.18
60611;BME280;46439;51.164;13.572;2023-02-08T02:39:42;102554.36;;;-4.23;76.98
60611;BME280;46439;51.164;13.572;2023-02-08T02:42:24;102559.91;;;-4.31;76.96
60611;BME280;46439;51.164;13.572;2023-02-08T02:45:19;102557.69;;;-4.36;76.70
60611;BME280;46439;51.164;13.572;2023-02-08T02:47:57;102558.58;;;-4.37;76.89
60611;BME280;46439;51.164;13.572;2023-02-08T02:50:33;102558.55;;;-4.36;76.78
60611;BME280;46439;51.164;13.572;2023-02-08T02:53:08;102557.65;;;-4.33;76.80
60611;BME280;46439;51.164;13.572;2023-02-08T02:55:42;102561.30;;;-4.30;76.89
60611;BME280;46439;51.164;13.572;2023-02-08T02:58:13;102554.91;;;-4.26;77.30
60611;BME280;46439;51.164;13.572;2023-02-08T03:00:43;102554.73;;;-4.25;77.03
60611;BME280;46439;51.164;13.572;2023-02-08T03:03:21;102558.23;;;-4.23;76.90
60611;BME280;46439;51.164;13.572;2023-02-08T03:05:53;102553.48;;;-4.22;77.20
60611;BME280;46439;51.164;13.572;2023-02-08T03:08:46;102552.06;;;-4.21;77.07
60611;BME280;46439;51.164;13.572;2023-02-08T03:11:19;102554.19;;;-4.24;76.68
60611;BME280;46439;51.164;13.572;2023-02-08T03:14:02;102559.41;;;-4.33;76.91
60611;BME280;46439;51.164;13.572;2023-02-08T03:16:46;102556.20;;;-4.44;76.45
60611;BME280;46439;51.164;13.572;2023-02-08T03:19:30;102560.30;;;-4.65;76.35
60611;BME280;46439;51.164;13.572;2023-02-08T03:22:10;102569.60;;;-4.80;75.77
60611;BME280;46439;51.164;13.572;2023-02-08T03:24:45;102571.96;;;-4.89;75.85
60611;BME280;46439;51.164;13.572;2023-02-08T03:27:24;102573.82;;;-4.98;75.43
60611;BME280;46439;51.164;13.572;2023-02-08T03:29:59;102567.23;;;-5.06;75.57
60611;BME280;46439;51.164;13.572;2023-02-08T03:32:36;102571.83;;;-5.10;75.67
60611;BME280;46439;51.164;13.572;2023-02-08T03:35:08;102574.16;;;-5.16;75.32
60611;BME280;46439;51.164;13.572;2023-02-08T03:37:43;102577.89;;;-5.20;75.58
60611;BME280;46439;51.164;13.572;2023-02-08T03:40:15;102578.80;;;-5.27;75.69
60611;BME280;46439;51.164;13.572;2023-02-08T03:42:45;102573.80;;;-5.37;75.31
60611;BME280;46439;51.164;13.572;2023-02-08T03:45:18;102575.80;;;-5.44;75.19
60611;BME280;46439;51.164;13.572;2023-02-08T03:47:50;102578.29;;;-5.50;75.32
60611;BME280;46439;51.164;13.572;2023-02-08T03:50:19;102586.92;;;-5.54;75.25
60611;BME280;46439;51.164;13.572;2023-02-08T03:52:50;102588.02;;;-5.60;75.03
60611;BME280;46439;51.164;13.572;2023-02-08T03:55:23;102588.23;;;-5.65;75.01
60611;BME280;46439;51.164;13.572;2023-02-08T03:57:56;102590.73;;;-5.73;75.22
60611;BME280;46439;51.164;13.572;2023-02-08T04:00:27;102594.41;;;-5.73;74.77
60611;BME280;46439;51.164;13.572;2023-02-08T04:02:59;102597.56;;;-5.73;74.95
60611;BME280;46439;51.164;13.572;2023-02-08T04:05:30;102599.14;;;-5.72;75.07
60611;BME280;46439;51.164;13.572;2023-02-08T04:07:58;102597.56;;;-5.73;75.11
60611;BME280;46439;51.164;13.572;2023-02-08T04:10:27;102597.41;;;-5.76;74.80
60611;BME280;46439;51.164;13.572;2023-02-08T04:12:56;102600.41;;;-5.79;75.18
60611;BME280;46439;51.164;13.572;2023-02-08T04:15:24;102598.66;;;-5.81;75.13
60611;BME280;46439;51.164;13.572;2023-02-08T04:17:54;102595.52;;;-5.85;74.90
60611;BME280;46439;51.164;13.572;2023-02-08T04:20:23;102594.81;;;-5.82;75.06
60611;BME280;46439;51.164;13.572;2023-02-08T04:22:51;102596.17;;;-5.74;75.03
60611;BME280;46439;51.164;13.572;2023-02-08T04:25:19;102594.58;;;-5.71;75.25
60611;BME280;46439;51.164;13.572;2023-02-08T04:27:48;102593.34;;;-5.71;75.19
60611;BME280;46439;51.164;13.572;2023-02-08T04:30:16;102591.61;;;-5.75;75.20
60611;BME280;46439;51.164;13.572;2023-02-08T04:32:45;102593.05;;;-5.80;75.07
60611;BME280;46439;51.164;13.572;2023-02-08T04:35:13;102592.52;;;-5.81;75.10
60611;BME280;46439;51.164;13.572;2023-02-08T04:37:42;102591.96;;;-5.76;75.20
60611;BME280;46439;51.164;13.572;2023-02-08T04:40:11;102585.98;;;-5.71;75.57
60611;BME280;46439;51.164;13.572;2023-02-08T04:42:40;102583.31;;;-5.66;75.34
60611;BME280;46439;51.164;13.572;2023-02-08T04:45:10;102581.89;;;-5.63;75.41
60611;BME280;46439;51.164;13.572;2023-02-08T04:47:38;102579.25;;;-5.63;75.34
60611;BME280;46439;51.164;13.572;2023-02-08T04:50:07;102575.42;;;-5.66;75.55
60611;BME280;46439;51.164;13.572;2023-02-08T04:52:36;102571.92;;;-5.67;75.60
60611;BME280;46439;51.164;13.572;2023-02-08T04:55:05;102571.89;;;-5.63;75.40
60611;BME280;46439;51.164;13.572;2023-02-08T04:57:34;102573.11;;;-5.59;75.69
60611;BME280;46439;51.164;13.572;2023-02-08T05:00:03;102573.09;;;-5.58;75.54
60611;BME280;46439;51.164;13.572;2023-02-08T05:02:31;102571.88;;;-5.61;75.70
60611;BME280;46439;51.164;13.572;2023-02-08T05:05:00;102568.91;;;-5.62;75.43
60611;BME280;46439;51.164;13.572;2023-02-08T05:07:28;102568.02;;;-5.60;75.62
60611;BME280;46439;51.164;13.572;2023-02-08T05:09:57;102569.57;;;-5.56;75.34
60611;BME280;46439;51.164;13.572;2023-02-08T05:12:25;102572.73;;;-5.56;75.75
60611;BME280;46439;51.164;13.572;2023-02-08T05:14:54;102572.14;;;-5.48;75.76
60611;BME280;46439;51.164;13.572;2023-02-08T05:17:22;102569.08;;;-5.40;76.02
60611;BME280;46439;51.164;13.572;2023-02-08T05:19:51;102565.73;;;-5.37;76.02
60611;BME280;46439;51.164;13.572;2023-02-08T05:22:19;102565.72;;;-5.36;76.32
60611;BME280;46439;51.164;13.572;2023-02-08T05:24:48;102564.80;;;-5.31;76.01
60611;BME280;46439;51.164;13.572;2023-02-08T05:27:16;102568.97;;;-5.25;76.24
60611;BME280;46439;51.164;13.572;2023-02-08T05:29:45;102568.04;;;-5.19;76.34
60611;BME280;46439;51.164;13.572;2023-02-08T05:32:13;102567.33;;;-5.17;76.52
60611;BME280;46439;51.164;13.572;2023-02-08T05:34:42;102569.25;;;-5.17;76.42
60611;BME280;46439;51.164;13.572;2023-02-08T05:37:11;102566.42;;;-5.15;76.45
60611;BME280;46439;51.164;13.572;2023-02-08T05:39:41;102568.88;;;-5.14;76.30
60611;BME280;46439;51.164;13.572;2023-02-08T05:42:09;102570.61;;;-5.11;76.50
60611;BME280;46439;51.164;13.572;2023-02-08T05:44:38;102567.96;;;-5.10;76.49
60611;BME280;46439;51.164;13.572;2023-02-08T05:47:06;102568.80;;;-5.06;76.78
60611;BME280;46439;51.164;13.572;2023-02-08T05:49:35;102574.34;;;-4.98;76.55
60611;BME280;46439;51.164;13.572;2023-02-08T05:52:04;102573.23;;;-4.93;76.75
60611;BME280;46439;51.164;13.572;2023-02-08T05:54:32;102574.11;;;-4.90;76.94
60611;BME280;46439;51.164;13.572;2023-02-08T05:57:00;102569.52;;;-4.89;76.84
60611;BME280;46439;51.164;13.572;2023-02-08T05:59:29;102571.09;;;-4.89;76.72
60611;BME280;46439;51.164;13.572;2023-02-08T06:01:58;102570.10;;;-4.95;76.55
60611;BME280;46439;51.164;13.572;2023-02-08T06:04:26;102570.28;;;-4.96;76.86
60611;BME280;46439;51.164;13.572;2023-02-08T06:06:55;102569.64;;;-5.01;76.84
60611;BME280;46439;51.164;13.572;2023-02-08T06:09:23;102566.89;;;-5.07;76.57
60611;BME280;46439;51.164;13.572;2023-02-08T06:11:52;102568.70;;;-5.14;76.51
60611;BME280;46439;51.164;13.572;2023-02-08T06:14:20;102569.27;;;-5.21;76.13
60611;BME280;46439;51.164;13.572;2023-02-08T06:16:49;102569.54;;;-5.29;76.24
60611;BME280;46439;51.164;13.572;2023-02-08T06:19:17;102573.97;;;-5.36;75.99
60611;BME280;46439;51.164;13.572;2023-02-08T06:21:46;102572.93;;;-5.38;76.03
60611;BME280;46439;51.164;13.572;2023-02-08T06:24:15;102576.23;;;-5.34;76.09
60611;BME280;46439;51.164;13.572;2023-02-08T06:26:44;102574.45;;;-5.32;76.37
60611;BME280;46439;51.164;13.572;2023-02-08T06:29:12;102577.95;;;-5.28;76.23
60611;BME280;46439;51.164;13.572;2023-02-08T06:31:41;102581.75;;;-5.22;76.31
60611;BME280;46439;51.164;13.572;2023-02-08T06:34:09;102588.34;;;-5.12;76.13
60611;BME280;46439;51.164;13.572;2023-02-08T06:36:37;102589.34;;;-5.05;76.40
60611;BME280;46439;51.164;13.572;2023-02-08T06:39:06;102592.60;;;-4.98;76.40
60611;BME280;46439;51.164;13.572;2023-02-08T06:41:35;102597.09;;;-4.89;76.70
60611;BME280;46439;51.164;13.572;2023-02-08T06:44:03;102600.20;;;-4.81;76.79
60611;BME280;46439;51.164;13.572;2023-02-08T06:46:32;102608.20;;;-4.76;77.03
60611;BME280;46439;51.164;13.572;2023-02-08T06:49:00;102611.13;;;-4.70;77.00
60611;BME280;46439;51.164;13.572;2023-02-08T06:51:28;102608.08;;;-4.63;77.39
60611;BME280;46439;51.164;13.572;2023-02-08T06:53:57;102607.36;;;-4.61;76.98
60611;BME280;46439;51.164;13.572;2023-02-08T06:56:25;102606.30;;;-4.61;76.91
60611;BME280;46439;51.164;13.572;2023-02-08T06:58:54;102614.20;;;-4.60;77.04
60611;BME280;46439;51.164;13.572;2023-02-08T07:01:23;102614.64;;;-4.52;77.26
60611;BME280;46439;51.164;13.572;2023-02-08T07:03:51;102613.90;;;-4.48;77.45
60611;BME280;46439;51.164;13.572;2023-02-08T07:06:20;102615.64;;;-4.46;77.31
60611;BME280;46439;51.164;13.572;2023-02-08T07:08:49;102611.74;;;-4.45;77.52
60611;BME280;46439;51.164;13.572;2023-02-08T07:11:19;102605.55;;;-4.39;77.17
60611;BME280;46439;51.164;13.572;2023-02-08T07:13:49;102602.33;;;-4.35;77.32
60611;BME280;46439;51.164;13.572;2023-02-08T07:16:19;102603.30;;;-4.29;77.37
60611;BME280;46439;51.164;13.572;2023-02-08T07:18:48;102602.75;;;-4.28;77.53
60611;BME280;46439;51.164;13.572;2023-02-08T07:21:17;102599.80;;;-4.29;77.35
60611;BME280;46439;51.164;13.572;2023-02-08T07:23:46;102600.17;;;-4.32;77.16
60611;BME280;46439;51.164;13.572;2023-02-08T07:26:14;102600.81;;;-4.40;77.31
60611;BME280;46439;51.164;13.572;2023-02-08T07:28:43;102601.91;;;-4.15;77.26
60611;BME280;46439;51.164;13.572;2023-02-08T07:31:13;102607.48;;;-4.10;77.50
60611;BME280;46439;51.164;13.572;2023-02-08T07:33:42;102610.13;;;-4.11;77.32
60611;BME280;46439;51.164;13.572;2023-02-08T07:36:11;102611.47;;;-4.06;77.44
60611;BME280;46439;51.164;13.572;2023-02-08T07:38:40;102614.60;;;-4.03;77.59
60611;BME280;46439;51.164;13.572;2023-02-08T07:41:10;102614.92;;;-4.01;77.65
60611;BME280;46439;51.164;13.572;2023-02-08T07:43:39;102608.95;;;-4.01;77.68
60611;BME280;46439;51.164;13.572;2023-02-08T07:46:12;102611.59;;;-4.02;77.22
60611;BME280;46439;51.164;13.572;2023-02-08T07:48:41;102613.13;;;-3.98;77.53
60611;BME280;46439;51.164;13.572;2023-02-08T07:51:10;102611.38;;;-3.73;77.60
60611;BME280;46439;51.164;13.572;2023-02-08T07:53:39;102617.70;;;-3.25;78.43
60611;BME280;46439;51.164;13.572;2023-02-08T07:56:07;102617.30;;;-3.21;78.82
60611;BME280;46439;51.164;13.572;2023-02-08T07:58:37;102618.27;;;-3.16;78.73
60611;BME280;46439;51.164;13.572;2023-02-08T08:01:06;102622.73;;;-3.09;78.81
60611;BME280;46439;51.164;13.572;2023-02-08T08:03:34;102620.91;;;-3.06;78.60
60611;BME280;46439;51.164;13.572;2023-02-08T08:06:03;102625.86;;;-3.06;78.79
60611;BME280;46439;51.164;13.572;2023-02-08T08:11:00;102625.77;;;-3.01;78.38
60611;BME280;46439;51.164;13.572;2023-02-08T08:13:28;102625.04;;;-2.98;78.54
60611;BME280;46439;51.164;13.572;2023-02-08T08:15:57;102626.88;;;-2.93;78.41
60611;BME280;46439;51.164;13.572;2023-02-08T08:18:25;102622.32;;;-2.94;78.42
60611;BME280;46439;51.164;13.572;2023-02-08T08:20:54;102625.06;;;-3.00;78.35
60611;BME280;46439;51.164;13.572;2023-02-08T08:23:23;102620.20;;;-3.04;77.98
60611;BME280;46439;51.164;13.572;2023-02-08T08:25:51;102623.77;;;-3.07;77.87
60611;BME280;46439;51.164;13.572;2023-02-08T08:28:20;102621.48;;;-3.09;78.06
60611;BME280;46439;51.164;13.572;2023-02-08T08:30:48;102624.82;;;-3.07;77.93
60611;BME280;46439;51.164;13.572;2023-02-08T08:33:17;102629.20;;;-3.05;77.92
60611;BME280;46439;51.164;13.572;2023-02-08T08:35:45;102632.88;;;-3.04;77.84
60611;BME280;46439;51.164;13.572;2023-02-08T08:38:14;102632.41;;;-2.97;77.99
60611;BME280;46439;51.164;13.572;2023-02-08T08:40:42;102635.36;;;-2.94;78.03
60611;BME280;46439;51.164;13.572;2023-02-08T08:43:11;102632.29;;;-2.89;78.14
60611;BME280;46439;51.164;13.572;2023-02-08T08:45:40;102628.70;;;-2.86;78.18
60611;BME280;46439;51.164;13.572;2023-02-08T08:48:08;102627.59;;;-2.83;78.10
60611;BME280;46439;51.164;13.572;2023-02-08T08:50:37;102629.99;;;-2.79;78.18
60611;BME280;46439;51.164;13.572;2023-02-08T08:53:06;102631.12;;;-2.74;78.17
60611;BME280;46439;51.164;13.572;2023-02-08T08:55:35;102628.55;;;-2.67;78.11
60611;BME280;46439;51.164;13.572;2023-02-08T08:58:03;102628.97;;;-2.61;78.44
60611;BME280;46439;51.164;13.572;2023-02-08T09:00:31;102631.89;;;-2.58;78.37
60611;BME280;46439;51.164;13.572;2023-02-08T09:03:00;102628.04;;;-2.50;78.59
60611;BME280;46439;51.164;13.572;2023-02-08T09:05:28;102630.26;;;-2.45;78.33
60611;BME280;46439;51.164;13.572;2023-02-08T09:07:57;102629.65;;;-2.41;78.44
60611;BME280;46439;51.164;13.572;2023-02-08T09:10:28;102629.55;;;-2.37;78.55
60611;BME280;46439;51.164;13.572;2023-02-08T09:12:58;102629.58;;;-2.29;78.50
60611;BME280;46439;51.164;13.572;2023-02-08T09:15:26;102629.73;;;-2.19;78.66
60611;BME280;46439;51.164;13.572;2023-02-08T09:17:55;102626.29;;;-2.14;78.68
60611;BME280;46439;51.164;13.572;2023-02-08T09:20:23;102630.45;;;-2.11;78.44
60611;BME280;46439;51.164;13.572;2023-02-08T09:22:52;102630.91;;;-2.07;78.74
60611;BME280;46439;51.164;13.572;2023-02-08T09:25:20;102634.36;;;-2.03;78.76
60611;BME280;46439;51.164;13.572;2023-02-08T09:27:51;102633.56;;;-1.99;78.69
60611;BME280;46439;51.164;13.572;2023-02-08T09:30:21;102632.96;;;-1.96;78.68
60611;BME280;46439;51.164;13.572;2023-02-08T09:32:49;102630.39;;;-1.90;78.78
60611;BME280;46439;51.164;13.572;2023-02-08T09:35:18;102629.62;;;-1.88;78.81
60611;BME280;46439;51.164;13.572;2023-02-08T09:37:46;102630.23;;;-1.83;78.66
60611;BME280;46439;51.164;13.572;2023-02-08T09:40:24;102625.12;;;-1.75;78.76
60611;BME280;46439;51.164;13.572;2023-02-08T09:43:00;102626.55;;;-1.68;78.74
60611;BME280;46439;51.164;13.572;2023-02-08T09:45:41;102627.02;;;-1.58;78.88
60611;BME280;46439;51.164;13.572;2023-02-08T09:48:19;102628.70;;;-1.46;78.99
60611;BME280;46439;51.164;13.572;2023-02-08T09:50:53;102633.06;;;-1.36;79.03
60611;BME280;46439;51.164;13.572;2023-02-08T09:53:27;102634.86;;;-1.30;79.15
60611;BME280;46439;51.164;13.572;2023-02-08T09:55:59;102634.02;;;-1.24;79.23
60611;BME280;46439;51.164;13.572;2023-02-08T09:58:34;102630.39;;;-1.20;79.17
60611;BME280;46439;51.164;13.572;2023-02-08T10:01:10;102633.34;;;-1.18;79.18
60611;BME280;46439;51.164;13.572;2023-02-08T10:03:43;102636.78;;;-1.14;79.21
60611;BME280;46439;51.164;13.572;2023-02-08T10:06:15;102632.91;;;-1.07;79.15
60611;BME280;46439;51.164;13.572;2023-02-08T10:08:45;102626.23;;;-1.02;79.24
60611;BME280;46439;51.164;13.572;2023-02-08T10:11:27;102624.95;;;-0.93;79.12
60611;BME280;46439;51.164;13.572;2023-02-08T10:14:11;102623.51;;;-0.84;79.24
60611;BME280;46439;51.164;13.572;2023-02-08T10:16:54;102621.08;;;-0.79;79.48
60611;BME280;46439;51.164;13.572;2023-02-08T10:19:37;102618.33;;;-0.76;79.33
60611;BME280;46439;51.164;13.572;2023-02-08T10:22:20;102620.30;;;-0.70;79.33
60611;BME280;46439;51.164;13.572;2023-02-08T10:25:04;102618.80;;;-0.60;79.43
60611;BME280;46439;51.164;13.572;2023-02-08T10:27:49;102620.33;;;-0.51;79.63
60611;BME280;46439;51.164;13.572;2023-02-08T10:30:23;102621.38;;;-0.44;79.53
60611;BME280;46439;51.164;13.572;2023-02-08T10:33:00;102623.05;;;-0.41;79.65
60611;BME280;46439;51.164;13.572;2023-02-08T10:35:32;102617.33;;;-0.38;79.61
60611;BME280;46439;51.164;13.572;2023-02-08T10:38:22;102618.48;;;-0.35;79.55
60611;BME280;46439;51.164;13.572;2023-02-08T10:40:54;102611.07;;;-0.30;79.51
60611;BME280;46439;51.164;13.572;2023-02-08T10:43:30;102607.77;;;-0.26;79.47
60611;BME280;46439;51.164;13.572;2023-02-08T10:46:10;102597.21;;;-0.22;79.51
60611;BME280;46439;51.164;13.572;2023-02-08T10:48:51;102596.18;;;-0.16;79.73
60611;BME280;46439;51.164;13.572;2023-02-08T10:51:22;102594.37;;;-0.09;79.76
60611;BME280;46439;51.164;13.572;2023-02-08T10:53:51;102587.66;;;-0.04;79.62
60611;BME280;46439;51.164;13.572;2023-02-08T10:56:44;102587.48;;;0.03;79.52
60611;BME280;46439;51.164;13.572;2023-02-08T10:59:19;102584.70;;;0.13;79.73
60611;BME280;46439;51.164;13.572;2023-02-08T11:01:49;102577.75;;;0.20;79.62
60611;BME280;46439;51.164;13.572;2023-02-08T11:04:18;102580.75;;;0.26;79.64
60611;BME280;46439;51.164;13.572;2023-02-08T11:06:48;102576.84;;;0.32;80.04
60611;BME280;46439;51.164;13.572;2023-02-08T11:09:25;102573.54;;;0.36;80.08
60611;BME280;46439;51.164;13.572;2023-02-08T11:11:55;102572.89;;;0.40;79.97
60611;BME280;46439;51.164;13.572;2023-02-08T11:14:27;102570.66;;;0.43;80.13
60611;BME280;46439;51.164;13.572;2023-02-08T11:17:00;102569.49;;;0.46;79.84
60611;BME280;46439;51.164;13.572;2023-02-08T11:19:38;102571.49;;;0.50;79.85
60611;BME280;46439;51.164;13.572;2023-02-08T11:22:15;102568.73;;;0.53;79.55
60611;BME280;46439;51.164;13.572;2023-02-08T11:24:45;102564.04;;;0.56;79.69
60611;BME280;46439;51.164;13.572;2023-02-08T11:27:31;102564.78;;;0.65;79.79
60611;BME280;46439;51.164;13.572;2023-02-08T11:30:19;102567.45;;;0.76;80.09
60611;BME280;46439;51.164;13.572;2023-02-08T11:35:35;102562.31;;;0.87;80.14
60611;BME280;46439;51.164;13.572;2023-02-08T11:38:05;102564.73;;;0.94;80.25
60611;BME280;46439;51.164;13.572;2023-02-08T11:40:36;102560.58;;;1.02;80.27
60611;BME280;46439;51.164;13.572;2023-02-08T11:43:06;102555.39;;;1.08;80.34
60611;BME280;46439;51.164;13.572;2023-02-08T11:45:36;102558.74;;;1.13;80.35
60611;BME280;46439;51.164;13.572;2023-02-08T11:48:18;102561.23;;;1.18;80.03
60611;BME280;46439;51.164;13.572;2023-02-08T11:50:54;102562.04;;;1.21;80.07
60611;BME280;46439;51.164;13.572;2023-02-08T11:53:27;102561.34;;;1.25;80.33
60611;BME280;46439;51.164;13.572;2023-02-08T11:56:13;102560.81;;;1.30;80.24
60611;BME280;46439;51.164;13.572;2023-02-08T11:58:43;102555.26;;;1.32;80.54
60611;BME280;46439;51.164;13.572;2023-02-08T12:01:25;102559.93;;;1.35;80.43
60611;BME280;46439;51.164;13.572;2023-02-08T12:03:55;102561.48;;;1.42;79.90
60611;BME280;46439;51.164;13.572;2023-02-08T12:06:38;102562.42;;;1.45;80.52
60611;BME280;46439;51.164;13.572;2023-02-08T12:09:15;102558.02;;;1.49;80.36
60611;BME280;46439;51.164;13.572;2023-02-08T12:11:51;102556.88;;;1.51;80.33
60611;BME280;46439;51.164;13.572;2023-02-08T12:14:39;102555.91;;;1.53;80.47
60611;BME280;46439;51.164;13.572;2023-02-08T12:17:21;102555.64;;;1.60;80.47
60611;BME280;46439;51.164;13.572;2023-02-08T12:20:05;102554.67;;;1.67;80.32
60611;BME280;46439;51.164;13.572;2023-02-08T12:22:41;102551.13;;;1.72;80.19
60611;BME280;46439;51.164;13.572;2023-02-08T12:25:22;102545.30;;;1.76;80.30
60611;BME280;46439;51.164;13.572;2023-02-08T12:27:56;102545.75;;;1.83;80.50
60611;BME280;46439;51.164;13.572;2023-02-08T12:30:31;102540.58;;;1.88;80.54
60611;BME280;46439;51.164;13.572;2023-02-08T12:33:14;102536.39;;;1.96;80.75
60611;BME280;46439;51.164;13.572;2023-02-08T12:35:56;102533.29;;;1.97;80.58
60611;BME280;46439;51.164;13.572;2023-02-08T12:38:37;102530.60;;;1.98;80.80
60611;BME280;46439;51.164;13.572;2023-02-08T12:41:33;102524.20;;;2.03;80.50
60611;BME280;46439;51.164;13.572;2023-02-08T12:44:09;102524.85;;;2.04;80.57
60611;BME280;46439;51.164;13.572;2023-02-08T12:46:50;102519.59;;;2.03;80.64
60611;BME280;46439;51.164;13.572;2023-02-08T12:49:37;102520.21;;;2.00;80.38
60611;BME280;46439;51.164;13.572;2023-02-08T12:52:30;102517.47;;;2.03;80.73
60611;BME280;46439;51.164;13.572;2023-02-08T12:55:11;102516.87;;;2.04;80.27
60611;BME280;46439;51.164;13.572;2023-02-08T12:57:42;102513.88;;;2.08;80.60
60611;BME280;46439;51.164;13.572;2023-02-08T13:00:21;102511.70;;;2.09;80.47
60611;BME280;46439;51.164;13.572;2023-02-08T13:02:54;102511.73;;;2.04;80.42
60611;BME280;46439;51.164;13.572;2023-02-08T13:05:29;102505.14;;;2.00;80.29
60611;BME280;46439;51.164;13.572;2023-02-08T13:10:50;102490.67;;;1.93;79.75
60611;BME280;46439;51.164;13.572;2023-02-08T13:13:22;102486.95;;;1.93;80.06
60611;BME280;46439;51.164;13.572;2023-02-08T13:15:57;102484.70;;;1.96;80.12
60611;BME280;46439;51.164;13.572;2023-02-08T13:18:30;102478.25;;;1.97;80.26
60611;BME280;46439;51.164;13.572;2023-02-08T13:21:03;102472.50;;;1.94;80.21
60611;BME280;46439;51.164;13.572;2023-02-08T13:23:37;102469.66;;;1.90;80.00